EETN Airport Information

Runway Information
Runway 08 Length 10072 ft width 148 ft
Elevation 129 ft Threshold 820 ft Heading 90
Runway 26 Length 10072 ft Width 148 ft
Elevation 131 ft Threshold 0 ft Heading 270
Airport Frequencies
Type APP Name APP Frequency 127.9 MHZ
Type ATIS Name ATIS Frequency 124.875 MHZ
Type TWR Name TWR Frequency 120.6 MHZ
Airport Navaids
Type NDB Name Tallinn Frequency 329 KHZ
Type NDB Name Tallinn Frequency 386 KHZ
Type VOR-DME Name Tallinn Frequency 112200 KHZ
Airport Weather Information & NOTAM
ADDS - METARS form results

(2221 UTC 20 June 2018)
 
METAR text: EETN 202220Z 20005KT 9999 BKN027 11/08 Q1008
Conditions at: EETN (TALLINN , EE) observed 2220 UTC 20 June 2018
Temperature: 11.0°C (52°F)
Dewpoint: 8.0°C (46°F) [RH = 82%]
Pressure (altimeter): 29.76 inches Hg (1008.0 mb)
Winds: from the SSW (200 degrees) at 6 MPH (5 knots; 2.6 m/s)
Visibility: 6 or more miles (10+ km)
Ceiling: 2700 feet AGL
Clouds: broken clouds at 2700 feet AGL
Weather: no significant weather observed at this time

METAR text: EETN 202150Z 22008KT 9999 -RA OVC033 12/08 Q1008 NOSIG
Conditions at: EETN (TALLINN , EE) observed 2150 UTC 20 June 2018
Temperature: 12.0°C (54°F)
Dewpoint: 8.0°C (46°F) [RH = 76%]
Pressure (altimeter): 29.76 inches Hg (1008.0 mb)
Winds: from the SW (220 degrees) at 9 MPH (8 knots; 4.2 m/s)
Visibility: 6 or more miles (10+ km)
Ceiling: 3300 feet AGL
Clouds: overcast cloud deck at 3300 feet AGL
Weather: -RA  (light rain)